^^
Datos históricos de la estación: Murcia-Puente Tocinos
Diario Informe para Noviembre 26, 2021 Unidades:  Métrico    Ingés   Ambas
Diario Semanal Mensual Anual
  Máxima: Mínima: Promedio:
Temperatura: 15.3 °C 7.3 °C 11.4 °C
Punto de rocio: 4.1 °C 1.9 °C 3 °C
Humedad: 76% 41.3% 58%
Velocidad viento: 23.3km/h 2.3km/h 10.2km/h
Racha viento: 41.2km/h - -
Viento- - SO
Presión: 1009.2 hPa 1006.1 hPa -
Precipitación: 0.0 mm    
 
 
Tabla de datos para Noviembre 26, 2021
Hora Temperatura Punto de rocio Presión Viento Velocidad viento Racha viento Humedad Intensidad lluvia(por hora) Nubes
00:04 10.2 °C 4.1 °C 1009.2 hPa SSO 5.8 km/h 9.3 km/h 66.1% 0.0 mm
00:09 10.2 °C 4.1 °C 1009.2 hPa SSO 6 km/h 9.3 km/h 66% 0.0 mm
00:14 10.2 °C 4.1 °C 1009.2 hPa SSO 6.4 km/h 11.1 km/h 66% 0.0 mm
00:19 10.2 °C 4.1 °C 1009.2 hPa SSO 6.6 km/h 11.1 km/h 66% 0.0 mm
00:24 10.2 °C 4.1 °C 1009.2 hPa SO 6.9 km/h 9.3 km/h 66% 0.0 mm
00:29 10.2 °C 4.1 °C 1009.1 hPa OSO 6.5 km/h 9.3 km/h 66% 0.0 mm
00:34 10.1 °C 4.1 °C 1009.1 hPa SO 5.8 km/h 11.9 km/h 66% 0.0 mm
00:39 10.1 °C 4.1 °C 1009.1 hPa SO 6.4 km/h 13.7 km/h 66% 0.0 mm
00:44 10.1 °C 4 °C 1009.0 hPa SO 7.6 km/h 11.1 km/h 65.8% 0.0 mm
00:49 10.1 °C 3.8 °C 1009.0 hPa OSO 7.2 km/h 9.3 km/h 65% 0.0 mm
00:54 10.1 °C 3.8 °C 1009.0 hPa Oeste 6.4 km/h 3.9 km/h 65% 0.0 mm
00:59 10 °C 3.8 °C 1009.0 hPa ONO 5.1 km/h 5.8 km/h 65.3% 0.0 mm
01:04 9.8 °C 3.8 °C 1009.0 hPa NE 2.9 km/h 7.4 km/h 66.3% 0.0 mm
01:09 9.6 °C 3.9 °C 1009.0 hPa NE 3 km/h 3.9 km/h 67.6% 0.0 mm
01:14 9.4 °C 3.8 °C 1008.9 hPa NE 3.2 km/h 3.7 km/h 68.3% 0.0 mm
01:19 9.3 °C 3.8 °C 1008.9 hPa NNO 2.9 km/h 5.6 km/h 69% 0.0 mm
01:24 9.2 °C 3.9 °C 1008.9 hPa Oeste 2.3 km/h 5.8 km/h 69.9% 0.0 mm
01:29 9 °C 3.9 °C 1008.8 hPa OSO 2.6 km/h 7.4 km/h 70.3% 0.0 mm
01:34 8.9 °C 3.9 °C 1008.8 hPa SO 3.2 km/h 8.7 km/h 71% 0.0 mm
01:39 8.9 °C 3.9 °C 1008.8 hPa SO 4.1 km/h 11.1 km/h 71% 0.0 mm
01:44 8.9 °C 3.8 °C 1008.6 hPa OSO 5.8 km/h 7.4 km/h 70.1% 0.0 mm
01:49 9 °C 3.8 °C 1008.6 hPa OSO 5.4 km/h 7.4 km/h 70% 0.0 mm
01:54 8.9 °C 3.7 °C 1008.6 hPa OSO 4.7 km/h 5.6 km/h 70% 0.0 mm
01:59 8.9 °C 3.7 °C 1008.3 hPa Sur 4.4 km/h 13 km/h 70.1% 0.0 mm
02:04 8.8 °C 3.8 °C 1008.3 hPa SSE 3.9 km/h 13 km/h 70.6% 0.0 mm
02:09 8.6 °C 3.8 °C 1008.3 hPa Sur 4.8 km/h 9.3 km/h 71.6% 0.0 mm
02:14 8.5 °C 3.7 °C 1008.2 hPa SSE 6.4 km/h 11.1 km/h 72% 0.0 mm
02:19 8.3 °C 3.7 °C 1008.2 hPa Sur 6.8 km/h 14.8 km/h 73% 0.0 mm
02:24 8.3 °C 3.7 °C 1008.4 hPa SSO 7.6 km/h 13.7 km/h 73% 0.0 mm
02:29 8.4 °C 3.8 °C 1008.4 hPa SSO 7.8 km/h 13 km/h 73% 0.0 mm
02:34 8.4 °C 3.7 °C 1008.4 hPa SSO 8.4 km/h 14.8 km/h 72.4% 0.0 mm
02:39 8.5 °C 3.7 °C 1008.4 hPa SO 8.5 km/h 11.1 km/h 72% 0.0 mm
02:44 8.5 °C 3.7 °C 1008.2 hPa SO 8.7 km/h 11.1 km/h 72% 0.0 mm
02:49 8.5 °C 3.7 °C 1008.2 hPa SSO 7.9 km/h 11.1 km/h 72% 0.0 mm
02:54 8.5 °C 3.7 °C 1008.3 hPa SSO 6.4 km/h 11.1 km/h 72% 0.0 mm
02:59 8.5 °C 3.7 °C 1008.3 hPa SSO 6.4 km/h 11.1 km/h 72% 0.0 mm
03:04 8.4 °C 3.7 °C 1008.3 hPa Sur 6.4 km/h 13 km/h 72% 0.0 mm
03:09 8.4 °C 3.6 °C 1008.3 hPa Sur 7.1 km/h 11.9 km/h 72% 0.0 mm
03:14 8.3 °C 3.6 °C 1008.3 hPa SSO 8.4 km/h 11.1 km/h 72% 0.0 mm
03:19 8.3 °C 3.6 °C 1008.3 hPa SO 7.9 km/h 11.1 km/h 72% 0.0 mm
03:24 8.3 °C 3.5 °C 1008.3 hPa SSO 6.9 km/h 11.9 km/h 71.4% 0.0 mm
03:29 8.3 °C 3.4 °C 1008.2 hPa SSO 6.9 km/h 11.1 km/h 71% 0.0 mm
03:34 8.3 °C 3.3 °C 1008.2 hPa Sur 6.9 km/h 11.1 km/h 71% 0.0 mm
03:39 8.3 °C 3.4 °C 1008.2 hPa Sur 7.4 km/h 11.1 km/h 71.2% 0.0 mm
03:44 8.2 °C 3.5 °C 1008.0 hPa SSO 8.4 km/h 9.5 km/h 72% 0.0 mm
03:49 8.2 °C 3.4 °C 1008.0 hPa SSO 7.1 km/h 9.3 km/h 72% 0.0 mm
03:54 8.2 °C 3.4 °C 1008.0 hPa Sur 4.7 km/h 10 km/h 71.9% 0.0 mm
03:59 8.2 °C 3.3 °C 1007.6 hPa Sur 4.8 km/h 10 km/h 71% 0.0 mm
04:04 8.2 °C 3.3 °C 1007.6 hPa SSE 5 km/h 9.5 km/h 71% 0.0 mm
04:09 8.2 °C 3.3 °C 1007.9 hPa SSO 5.5 km/h 9.3 km/h 71% 0.0 mm
04:14 8.2 °C 3.4 °C 1007.9 hPa SO 6.4 km/h 7.4 km/h 71.9% 0.0 mm
04:19 8.2 °C 3.4 °C 1007.9 hPa OSO 5.6 km/h 7.4 km/h 71.6% 0.0 mm
04:24 8.2 °C 3.3 °C 1008.1 hPa OSO 3.9 km/h 7.6 km/h 71% 0.0 mm
04:29 8.1 °C 3.4 °C 1008.1 hPa OSO 3.9 km/h 7.4 km/h 71.9% 0.0 mm
04:34 8.1 °C 3.3 °C 1008.1 hPa SO 3.9 km/h 7.4 km/h 72% 0.0 mm
04:39 8.1 °C 3.3 °C 1008.1 hPa SO 3.5 km/h 3.7 km/h 72% 0.0 mm
04:44 8 °C 3.3 °C 1007.9 hPa OSO 2.9 km/h 3.7 km/h 72% 0.0 mm
04:49 8 °C 3.4 °C 1007.9 hPa SO 2.7 km/h 7.4 km/h 72.5% 0.0 mm
04:54 7.9 °C 3.3 °C 1008.0 hPa Sur 2.3 km/h 8.4 km/h 73% 0.0 mm
04:59 7.8 °C 3.3 °C 1008.0 hPa SO 3.3 km/h 8.4 km/h 73% 0.0 mm
05:04 7.7 °C 3.3 °C 1008.0 hPa SSO 5 km/h 7.4 km/h 73.8% 0.0 mm
05:09 7.7 °C 3.3 °C 1008.1 hPa SO 4.9 km/h 7.6 km/h 74% 0.0 mm
05:14 7.6 °C 3.3 °C 1008.1 hPa OSO 4.7 km/h 7.4 km/h 74% 0.0 mm
05:19 7.6 °C 3.3 °C 1008.1 hPa SO 4.4 km/h 8.4 km/h 74.6% 0.0 mm
05:24 7.5 °C 3.3 °C 1008.1 hPa Sur 3.9 km/h 7.4 km/h 75% 0.0 mm
05:29 7.5 °C 3.3 °C 1008.1 hPa SO 4.2 km/h 7.4 km/h 75% 0.0 mm
05:34 7.5 °C 3.3 °C 1008.1 hPa SO 4.7 km/h 7.4 km/h 75% 0.0 mm
05:39 7.5 °C 3.3 °C 1008.3 hPa SSE 4.4 km/h 7.4 km/h 75% 0.0 mm
05:44 7.5 °C 3.4 °C 1008.3 hPa SSE 3.9 km/h 5.6 km/h 75% 0.0 mm
05:49 7.5 °C 3.4 °C 1008.3 hPa SE 3.3 km/h 5.6 km/h 75% 0.0 mm
05:54 7.4 °C 3.3 °C 1008.3 hPa NE 2.3 km/h 5.6 km/h 75% 0.0 mm
05:59 7.4 °C 3.3 °C 1008.0 hPa NE 2.5 km/h 4.7 km/h 75% 0.0 mm
06:04 7.3 °C 3.2 °C 1008.0 hPa NNE 2.9 km/h 5.8 km/h 75.1% 0.0 mm
06:09 7.3 °C 3.3 °C 1008.0 hPa ONO 3 km/h 7.4 km/h 76% 0.0 mm
06:14 7.3 °C 3.3 °C 1007.9 hPa Oeste 3.2 km/h 7.6 km/h 76% 0.0 mm
06:19 7.3 °C 3.3 °C 1007.9 hPa SO 3.7 km/h 8.7 km/h 76% 0.0 mm
06:24 7.3 °C 3.4 °C 1008.2 hPa Sur 4.7 km/h 11.9 km/h 76% 0.0 mm
06:29 7.4 °C 3.4 °C 1008.2 hPa Sur 6 km/h 13 km/h 75.7% 0.0 mm
06:34 7.4 °C 3.3 °C 1008.2 hPa Sur 8.4 km/h 11.9 km/h 75% 0.0 mm
06:39 7.4 °C 3.3 °C 1008.2 hPa SO 7.7 km/h 9.3 km/h 75% 0.0 mm
06:44 7.6 °C 3.4 °C 1008.2 hPa SO 6.4 km/h 5.8 km/h 75% 0.0 mm
06:49 7.6 °C 3.5 °C 1008.2 hPa SSO 5.5 km/h 5.6 km/h 75% 0.0 mm
06:54 7.7 °C 3.6 °C 1008.2 hPa SO 3.9 km/h 5.6 km/h 75% 0.0 mm
06:59 7.8 °C 3.7 °C 1008.0 hPa SSO 3.6 km/h 8.4 km/h 75% 0.0 mm
07:04 7.9 °C 3.6 °C 1008.0 hPa Sur 3.2 km/h 8.4 km/h 74% 0.0 mm
07:09 8.2 °C 3.7 °C 1008.0 hPa Sur 3.7 km/h 8.4 km/h 73.6% 0.0 mm
07:14 8.2 °C 3.7 °C 1007.9 hPa Sur 4.7 km/h 7.6 km/h 73% 0.0 mm
07:19 8.3 °C 3.7 °C 1007.9 hPa Sur 5.1 km/h 11.1 km/h 73% 0.0 mm
07:24 8.4 °C 3.8 °C 1008.2 hPa SSO 5.8 km/h 7.4 km/h 73% 0.0 mm
07:29 8.4 °C 3.8 °C 1008.2 hPa SSO 5.4 km/h 7.4 km/h 73% 0.0 mm
07:34 8.5 °C 3.9 °C 1008.2 hPa SO 4.7 km/h 8.4 km/h 72.6% 0.0 mm
07:39 8.6 °C 3.8 °C 1008.3 hPa SO 4.7 km/h 7.6 km/h 72% 0.0 mm
07:44 8.7 °C 3.9 °C 1008.3 hPa SSO 4.7 km/h 10.3 km/h 72% 0.0 mm
07:49 8.7 °C 4 °C 1008.3 hPa Sur 5.1 km/h 11.1 km/h 72% 0.0 mm
07:54 8.7 °C 3.9 °C 1008.5 hPa Sur 5.8 km/h 9.5 km/h 72.2% 0.0 mm
07:59 8.6 °C 4.1 °C 1008.5 hPa SSO 6.2 km/h 11.9 km/h 73% 0.0 mm
08:04 8.7 °C 4 °C 1008.5 hPa SSO 6.9 km/h 11.1 km/h 72.4% 0.0 mm
08:09 8.8 °C 3.9 °C 1008.6 hPa SO 6.9 km/h 11.1 km/h 71.8% 0.0 mm
08:14 8.9 °C 3.9 °C 1008.6 hPa SSO 6.9 km/h 11.1 km/h 71% 0.0 mm
08:19 8.9 °C 3.8 °C 1008.6 hPa SSO 6.9 km/h 11.1 km/h 70.1% 0.0 mm
08:24 9 °C 3.8 °C 1008.6 hPa SSO 6.9 km/h 11.1 km/h 70% 0.0 mm
08:29 9 °C 3.9 °C 1008.5 hPa SSO 6.9 km/h 11.1 km/h 70% 0.0 mm
08:34 9.1 °C 3.8 °C 1008.5 hPa SSO 6.9 km/h 18.5 km/h 69.3% 0.0 mm
08:39 9.2 °C 3.8 °C 1008.6 hPa SSO 7.5 km/h 16.7 km/h 69% 0.0 mm
08:44 9.2 °C 3.7 °C 1008.6 hPa SO 8.7 km/h 14.8 km/h 68.5% 0.0 mm
08:49 9.3 °C 3.7 °C 1008.6 hPa SO 8.7 km/h 16.7 km/h 68% 0.0 mm
08:54 9.4 °C 3.7 °C 1008.6 hPa SSO 8.7 km/h 16.7 km/h 67.4% 0.0 mm
08:59 9.7 °C 3.7 °C 1008.6 hPa SSO 9.2 km/h 14.8 km/h 66.5% 0.0 mm
09:04 9.8 °C 3.7 °C 1008.6 hPa SO 10 km/h 14.8 km/h 66% 0.0 mm
09:09 9.9 °C 3.7 °C 1008.7 hPa SO 9.4 km/h 13.7 km/h 65.4% 0.0 mm
09:14 10.1 °C 3.8 °C 1008.7 hPa SO 8.4 km/h 13 km/h 65% 0.0 mm
09:19 10.1 °C 3.8 °C 1008.7 hPa SO 8.1 km/h 14.8 km/h 65% 0.0 mm
09:24 10.2 °C 3.9 °C 1008.8 hPa SSO 7.6 km/h 14.8 km/h 65% 0.0 mm
09:29 10.3 °C 3.9 °C 1008.8 hPa SSO 7.6 km/h 13 km/h 65% 0.0 mm
09:34 10.3 °C 4 °C 1008.8 hPa SSO 7.6 km/h 17.2 km/h 65% 0.0 mm
09:39 10.3 °C 4 °C 1008.8 hPa SO 8.3 km/h 18.5 km/h 65% 0.0 mm
09:44 10.4 °C 4 °C 1008.8 hPa SO 9.5 km/h 22.2 km/h 64.4% 0.0 mm
09:49 10.4 °C 3.9 °C 1008.8 hPa SO 9.7 km/h 18.5 km/h 64% 0.0 mm
09:54 10.6 °C 3.9 °C 1008.9 hPa OSO 10 km/h 19 km/h 63.3% 0.0 mm
09:59 10.7 °C 3.8 °C 1008.9 hPa OSO 10 km/h 20.1 km/h 62.2% 0.0 mm
10:04 10.9 °C 3.6 °C 1008.9 hPa OSO 10 km/h 26.2 km/h 61% 0.0 mm
10:09 10.9 °C 3.5 °C 1008.9 hPa OSO 10.8 km/h 25.9 km/h 60% 0.0 mm
10:14 11 °C 3.7 °C 1008.9 hPa OSO 12.2 km/h 24.5 km/h 60.5% 0.0 mm
10:19 11.2 °C 3.5 °C 1008.9 hPa OSO 12.8 km/h 28.2 km/h 59.5% 0.0 mm
10:24 11.2 °C 3.6 °C 1008.9 hPa OSO 14 km/h 29.8 km/h 59.3% 0.0 mm
10:29 11.3 °C 3.6 °C 1008.9 hPa OSO 14.3 km/h 24.1 km/h 59% 0.0 mm
10:34 11.4 °C 3.6 °C 1008.9 hPa OSO 14.8 km/h 22.2 km/h 59% 0.0 mm
10:39 11.6 °C 3.7 °C 1008.9 hPa OSO 13.9 km/h 22.2 km/h 58.4% 0.0 mm
10:44 11.7 °C 3.7 °C 1008.9 hPa Oeste 12.2 km/h 23.3 km/h 58% 0.0 mm
10:49 11.8 °C 3.2 °C 1008.9 hPa Oeste 12.2 km/h 24.1 km/h 55.7% 0.0 mm
10:54 11.8 °C 3.1 °C 1008.9 hPa Oeste 12.2 km/h 29.6 km/h 55% 0.0 mm
10:59 11.8 °C 3.1 °C 1008.9 hPa Oeste 13.2 km/h 29.6 km/h 55% 0.0 mm
11:04 11.9 °C 2.9 °C 1008.9 hPa Oeste 14.8 km/h 28.2 km/h 54.2% 0.0 mm
11:09 11.9 °C 3 °C 1008.9 hPa Oeste 15.2 km/h 25.9 km/h 54.6% 0.0 mm
11:14 12 °C 3 °C 1008.9 hPa Oeste 16.1 km/h 19 km/h 54.2% 0.0 mm
11:19 12.2 °C 3.1 °C 1008.9 hPa Oeste 14.6 km/h 24.1 km/h 54% 0.0 mm
11:24 12.2 °C 2.9 °C 1008.9 hPa ONO 11.9 km/h 26.2 km/h 53.2% 0.0 mm
11:29 12.2 °C 2.9 °C 1008.8 hPa Oeste 12.6 km/h 28.2 km/h 53% 0.0 mm
11:34 12.3 °C 2.9 °C 1008.8 hPa Oeste 14 km/h 28.2 km/h 52.8% 0.0 mm
11:39 12.4 °C 2.8 °C 1008.8 hPa Oeste 14.3 km/h 26.2 km/h 52.1% 0.0 mm
11:44 12.5 °C 2.8 °C 1008.6 hPa Oeste 14.8 km/h 33.3 km/h 51.8% 0.0 mm
11:49 12.7 °C 2.9 °C 1008.6 hPa Oeste 15.1 km/h 27.8 km/h 51.3% 0.0 mm
11:54 12.8 °C 2.9 °C 1008.6 hPa Oeste 15.6 km/h 28.2 km/h 51% 0.0 mm
11:59 12.9 °C 2.9 °C 1008.5 hPa ONO 15.3 km/h 27.8 km/h 50.5% 0.0 mm
12:04 12.9 °C 2.7 °C 1008.5 hPa Oeste 14.8 km/h 25.9 km/h 50% 0.0 mm
12:09 13 °C 3 °C 1008.5 hPa Oeste 14.8 km/h 25.9 km/h 50.6% 0.0 mm
12:14 13.1 °C 2.9 °C 1008.1 hPa Oeste 14.8 km/h 22.5 km/h 50% 0.0 mm
12:19 13.1 °C 2.9 °C 1008.1 hPa ONO 15.1 km/h 30.6 km/h 49.8% 0.0 mm
12:24 13.3 °C 3 °C 1008.1 hPa Oeste 15.6 km/h 29.6 km/h 49.7% 0.0 mm
12:29 13.4 °C 2.9 °C 1007.9 hPa Oeste 15.1 km/h 24.1 km/h 49% 0.0 mm
12:34 13.6 °C 2.9 °C 1007.9 hPa Oeste 14 km/h 29.6 km/h 48.6% 0.0 mm
12:39 13.7 °C 2.9 °C 1007.9 hPa Oeste 14.6 km/h 29.6 km/h 47.9% 0.0 mm
12:44 13.8 °C 2.7 °C 1007.7 hPa OSO 15.6 km/h 25.9 km/h 47.3% 0.0 mm
12:49 13.9 °C 2.8 °C 1007.7 hPa Oeste 15.6 km/h 30.9 km/h 47% 0.0 mm
12:54 14 °C 2.7 °C 1007.7 hPa Oeste 15.6 km/h 31.5 km/h 46.2% 0.0 mm
12:59 14.2 °C 2.9 °C 1007.5 hPa Oeste 15 km/h 29.8 km/h 46.4% 0.0 mm
13:04 14.3 °C 2.5 °C 1007.5 hPa Oeste 14 km/h 37.8 km/h 44.9% 0.0 mm
13:09 14.2 °C 2.3 °C 1007.5 hPa Oeste 16.2 km/h 37 km/h 44.5% 0.0 mm
13:14 14.2 °C 2.5 °C 1007.0 hPa Oeste 20.1 km/h 31.5 km/h 45% 0.0 mm
13:19 14.3 °C 2.5 °C 1007.0 hPa Oeste 19.7 km/h 37.8 km/h 44.9% 0.0 mm
13:24 14.4 °C 2.3 °C 1007.0 hPa Oeste 19 km/h 35.2 km/h 44.1% 0.0 mm
13:29 14.4 °C 2.2 °C 1006.9 hPa Oeste 19.3 km/h 40.7 km/h 43.7% 0.0 mm
13:34 14.5 °C 2.1 °C 1006.9 hPa Oeste 19.8 km/h 41.2 km/h 43% 0.0 mm
13:39 14.7 °C 2.2 °C 1006.9 hPa ONO 20.2 km/h 33.3 km/h 43% 0.0 mm
13:44 14.7 °C 2.1 °C 1006.8 hPa Oeste 20.9 km/h 35.9 km/h 42.6% 0.0 mm
13:49 14.8 °C 2.1 °C 1006.8 hPa Oeste 21.2 km/h 35.2 km/h 42.2% 0.0 mm
13:54 14.9 °C 2.3 °C 1006.8 hPa Oeste 21.7 km/h 33.5 km/h 42.8% 0.0 mm
13:59 14.9 °C 2.5 °C 1006.5 hPa Oeste 21.4 km/h 40.7 km/h 43% 0.0 mm
14:04 14.9 °C 2.3 °C 1006.5 hPa ONO 20.9 km/h 35.2 km/h 42.5% 0.0 mm
14:09 15 °C 2.2 °C 1006.5 hPa Oeste 21.8 km/h 38.9 km/h 42.2% 0.0 mm
14:14 15 °C 2.1 °C 1006.4 hPa Oeste 23.3 km/h 35.2 km/h 42% 0.0 mm
14:19 15.1 °C 2.2 °C 1006.4 hPa Oeste 22.8 km/h 37 km/h 42% 0.0 mm
14:24 15.1 °C 2.3 °C 1006.4 hPa Oeste 21.7 km/h 34.3 km/h 42.2% 0.0 mm
14:29 15.1 °C 2.5 °C 1006.3 hPa Oeste 20.7 km/h 36.2 km/h 42.6% 0.0 mm
14:34 15 °C 2.4 °C 1006.3 hPa Oeste 19 km/h 37 km/h 42.5% 0.0 mm
14:39 15.2 °C 2.6 °C 1006.3 hPa Oeste 18.6 km/h 33.3 km/h 42.9% 0.0 mm
14:44 15.2 °C 2.4 °C 1006.1 hPa Oeste 18 km/h 38.9 km/h 42.1% 0.0 mm
14:49 15.2 °C 2.3 °C 1006.1 hPa OSO 18.7 km/h 35.9 km/h 41.9% 0.0 mm
14:54 15.3 °C 2.2 °C 1006.1 hPa Oeste 19.8 km/h 33.3 km/h 41.3% 0.0 mm
14:59 15.3 °C 2.3 °C 1006.1 hPa Oeste 19.5 km/h 37 km/h 41.7% 0.0 mm
15:04 15.2 °C 2.4 °C 1006.1 hPa ONO 19 km/h 31.5 km/h 42.3% 0.0 mm
15:09 15.2 °C 2.7 °C 1006.1 hPa ONO 18.1 km/h 26.2 km/h 43% 0.0 mm
15:14 15.2 °C 2.3 °C 1006.1 hPa ONO 16.4 km/h 34.3 km/h 42% 0.0 mm
15:19 15 °C 2.5 °C 1006.1 hPa ONO 17.1 km/h 29.6 km/h 43% 0.0 mm
15:24 14.9 °C 2.4 °C 1006.2 hPa Oeste 18.3 km/h 34.3 km/h 42.9% 0.0 mm
15:29 15 °C 2.5 °C 1006.2 hPa Oeste 18.3 km/h 33.3 km/h 42.9% 0.0 mm
15:34 15.1 °C 2.6 °C 1006.2 hPa Oeste 18.3 km/h 26.2 km/h 42.9% 0.0 mm
15:39 15.1 °C 2.6 °C 1006.3 hPa Oeste 16.8 km/h 22.5 km/h 42.9% 0.0 mm
15:44 15.1 °C 2.6 °C 1006.3 hPa Oeste 14 km/h 30.6 km/h 43% 0.0 mm
15:49 15.1 °C 2.3 °C 1006.3 hPa Oeste 15.2 km/h 28.2 km/h 42.3% 0.0 mm
15:54 14.9 °C 2.3 °C 1006.3 hPa Oeste 17.2 km/h 22.5 km/h 42.7% 0.0 mm
15:59 14.8 °C 2.2 °C 1006.3 hPa Oeste 15.6 km/h 29.8 km/h 42.7% 0.0 mm
16:04 14.7 °C 2.2 °C 1006.3 hPa Oeste 13 km/h 30.6 km/h 43% 0.0 mm
16:09 14.8 °C 2.4 °C 1006.4 hPa Oeste 14.2 km/h 33.5 km/h 43.3% 0.0 mm
16:14 14.9 °C 2.4 °C 1006.4 hPa Oeste 16.4 km/h 33.3 km/h 43% 0.0 mm
16:19 14.9 °C 2.5 °C 1006.4 hPa OSO 16.3 km/h 28.2 km/h 43% 0.0 mm
16:24 15 °C 2.5 °C 1006.5 hPa OSO 16.1 km/h 28.2 km/h 43% 0.0 mm
16:29 15.1 °C 2.6 °C 1006.5 hPa Oeste 15.4 km/h 28.2 km/h 43% 0.0 mm
16:34 15.1 °C 2.6 °C 1006.5 hPa OSO 14 km/h 24.1 km/h 43% 0.0 mm
16:39 15.1 °C 2.6 °C 1006.6 hPa OSO 13.9 km/h 22.2 km/h 43% 0.0 mm
16:44 14.9 °C 2.5 °C 1006.6 hPa OSO 13.7 km/h 18.5 km/h 43.2% 0.0 mm
16:49 14.8 °C 2.4 °C 1006.6 hPa Oeste 12.5 km/h 20.4 km/h 43% 0.0 mm
16:54 14.7 °C 2.2 °C 1006.7 hPa OSO 10.3 km/h 16.7 km/h 43% 0.0 mm
16:59 14.6 °C 2.3 °C 1006.7 hPa OSO 10.2 km/h 22.2 km/h 43.5% 0.0 mm
17:04 14.7 °C 2.5 °C 1006.7 hPa OSO 10 km/h 19 km/h 44% 0.0 mm
17:09 14.7 °C 2.5 °C 1006.9 hPa OSO 10.1 km/h 16.7 km/h 43.9% 0.0 mm
17:14 14.7 °C 2.5 °C 1006.9 hPa OSO 10.3 km/h 16.7 km/h 44% 0.0 mm
17:19 14.6 °C 2.4 °C 1006.9 hPa OSO 10 km/h 15.6 km/h 44% 0.0 mm
17:24 14.5 °C 2.4 °C 1007.1 hPa Oeste 9.5 km/h 14.8 km/h 44.1% 0.0 mm
17:29 14.4 °C 2.6 °C 1007.1 hPa ONO 9.1 km/h 24.1 km/h 45% 0.0 mm
17:34 14.3 °C 2.3 °C 1007.1 hPa Oeste 8.4 km/h 25.9 km/h 44.3% 0.0 mm
17:39 14.3 °C 2.2 °C 1007.3 hPa ONO 10.3 km/h 20.4 km/h 44.2% 0.0 mm
17:44 14.2 °C 2.2 °C 1007.3 hPa ONO 13.7 km/h 31.7 km/h 44.5% 0.0 mm
17:49 14.1 °C 2.3 °C 1007.3 hPa Oeste 13.7 km/h 31.5 km/h 44.9% 0.0 mm
17:54 13.9 °C 2.2 °C 1007.4 hPa Oeste 13.7 km/h 29.8 km/h 45% 0.0 mm
17:59 13.9 °C 2.2 °C 1007.4 hPa Oeste 14.6 km/h 27.8 km/h 45% 0.0 mm
18:04 13.8 °C 2.3 °C 1007.4 hPa OSO 16.1 km/h 30.9 km/h 45.5% 0.0 mm
18:09 13.7 °C 2.3 °C 1007.6 hPa Oeste 15.3 km/h 31.5 km/h 46% 0.0 mm
18:14 13.7 °C 2.3 °C 1007.6 hPa Oeste 14 km/h 24.1 km/h 46% 0.0 mm
18:19 13.6 °C 2.2 °C 1007.6 hPa Oeste 14 km/h 22.2 km/h 46% 0.0 mm
18:24 13.5 °C 2.3 °C 1007.6 hPa Oeste 14 km/h 22.2 km/h 46.8% 0.0 mm
18:29 13.4 °C 2.3 °C 1007.6 hPa Oeste 13.6 km/h 24.1 km/h 47% 0.0 mm
18:34 13.4 °C 2.3 °C 1007.6 hPa Oeste 13 km/h 25.1 km/h 47% 0.0 mm
18:39 13.4 °C 2.3 °C 1007.6 hPa Oeste 13.4 km/h 25.9 km/h 47% 0.0 mm
18:44 13.4 °C 2.3 °C 1007.6 hPa Oeste 14 km/h 23.3 km/h 47% 0.0 mm
18:49 13.3 °C 2.2 °C 1007.6 hPa Oeste 13.9 km/h 25.9 km/h 47% 0.0 mm
18:54 13.3 °C 2.2 °C 1007.7 hPa Oeste 13.7 km/h 28.2 km/h 47% 0.0 mm
18:59 13.3 °C 2.2 °C 1007.7 hPa Oeste 14.5 km/h 27.8 km/h 47% 0.0 mm
19:04 13.3 °C 2.2 °C 1007.7 hPa Oeste 15.6 km/h 26.2 km/h 47% 0.0 mm
19:09 13.3 °C 2.2 °C 1007.9 hPa Oeste 15.1 km/h 25.9 km/h 47% 0.0 mm
19:14 13.3 °C 2.2 °C 1007.9 hPa Oeste 14 km/h 22.5 km/h 47% 0.0 mm
19:19 13.3 °C 2.1 °C 1007.9 hPa Oeste 13.9 km/h 22.2 km/h 46.7% 0.0 mm
19:24 13.3 °C 2.2 °C 1008.0 hPa Oeste 13.7 km/h 24.1 km/h 46.9% 0.0 mm
19:29 13.3 °C 2.2 °C 1008.0 hPa Oeste 13.2 km/h 23.7 km/h 47% 0.0 mm
19:34 13.2 °C 2.1 °C 1008.0 hPa Oeste 12.2 km/h 24.1 km/h 47% 0.0 mm
19:39 13.2 °C 2.1 °C 1008.3 hPa Oeste 12.2 km/h 20.4 km/h 47% 0.0 mm
19:44 13.1 °C 2.1 °C 1008.3 hPa ONO 12.2 km/h 26.2 km/h 47% 0.0 mm
19:49 13.2 °C 2.1 °C 1008.3 hPa Oeste 12.5 km/h 24.1 km/h 47% 0.0 mm
19:54 13.2 °C 2.1 °C 1008.3 hPa Oeste 13 km/h 24.5 km/h 47% 0.0 mm
19:59 13.2 °C 2.1 °C 1008.3 hPa Oeste 13.4 km/h 20.9 km/h 47% 0.0 mm
20:04 13.1 °C 2.1 °C 1008.3 hPa Oeste 14 km/h 20.4 km/h 47% 0.0 mm
20:09 13.1 °C 2.3 °C 1008.5 hPa Oeste 12.6 km/h 18.5 km/h 48% 0.0 mm
20:14 13.1 °C 2.1 °C 1008.5 hPa Oeste 10 km/h 17.2 km/h 47.2% 0.0 mm
20:19 13.1 °C 2.2 °C 1008.5 hPa Oeste 9.5 km/h 13 km/h 47.5% 0.0 mm
20:24 13.1 °C 2.3 °C 1008.5 hPa Oeste 8.7 km/h 18.5 km/h 48% 0.0 mm
20:29 12.9 °C 2.2 °C 1008.5 hPa OSO 8.6 km/h 15.6 km/h 48% 0.0 mm
20:34 12.9 °C 2.2 °C 1008.5 hPa OSO 8.4 km/h 16.7 km/h 48% 0.0 mm
20:39 12.9 °C 2.2 °C 1008.5 hPa SO 8.5 km/h 13 km/h 48% 0.0 mm
20:44 12.8 °C 2.2 °C 1008.5 hPa SO 8.7 km/h 10 km/h 48.7% 0.0 mm
20:49 12.7 °C 2.2 °C 1008.5 hPa OSO 7.9 km/h 11.9 km/h 49.1% 0.0 mm
20:54 12.5 °C 2.4 °C 1008.5 hPa SO 6.4 km/h 13.7 km/h 50% 0.0 mm
20:59 12.4 °C 2.3 °C 1008.4 hPa SO 7.2 km/h 11.1 km/h 50.1% 0.0 mm
21:04 12.4 °C 2.5 °C 1008.4 hPa SO 8.4 km/h 13 km/h 51% 0.0 mm
21:09 12.3 °C 2.4 °C 1008.5 hPa SO 8.4 km/h 13 km/h 51% 0.0 mm
21:14 12.3 °C 2.5 °C 1008.5 hPa SO 8.4 km/h 11.1 km/h 51% 0.0 mm
21:19 12.4 °C 2.5 °C 1008.5 hPa SO 8.1 km/h 11.1 km/h 50.8% 0.0 mm
21:24 12.4 °C 2.3 °C 1008.6 hPa SO 7.6 km/h 14.8 km/h 50% 0.0 mm
21:29 12.6 °C 2.4 °C 1008.6 hPa OSO 7.6 km/h 13 km/h 50% 0.0 mm
21:34 12.5 °C 2.3 °C 1008.6 hPa Oeste 7.6 km/h 7.4 km/h 50% 0.0 mm
21:39 12.3 °C 2.4 °C 1008.6 hPa SSO 6.5 km/h 9.5 km/h 50.5% 0.0 mm
21:44 12 °C 2.6 °C 1008.6 hPa Sur 4.7 km/h 13.7 km/h 52.4% 0.0 mm
21:49 11.6 °C 2.7 °C 1008.6 hPa Sur 5.4 km/h 13 km/h 54.3% 0.0 mm
21:54 11.3 °C 2.7 °C 1008.6 hPa SSO 6.9 km/h 13.7 km/h 55.2% 0.0 mm
21:59 11.2 °C 2.6 °C 1008.4 hPa SSO 7.2 km/h 16.1 km/h 55.7% 0.0 mm
22:04 11.2 °C 2.5 °C 1008.4 hPa SSO 7.6 km/h 19 km/h 55% 0.0 mm
22:09 11.3 °C 2.5 °C 1008.5 hPa Sur 8.5 km/h 18 km/h 54.9% 0.0 mm
22:14 11.4 °C 2.4 °C 1008.5 hPa Sur 10.3 km/h 18.5 km/h 54% 0.0 mm
22:19 11.5 °C 2.3 °C 1008.5 hPa Sur 10 km/h 13.7 km/h 53.4% 0.0 mm
22:24 11.6 °C 2.3 °C 1008.5 hPa Sur 9.5 km/h 19 km/h 53% 0.0 mm
22:29 11.5 °C 2.2 °C 1008.4 hPa Sur 10.4 km/h 24.5 km/h 52.8% 0.0 mm
22:34 11.8 °C 2.1 °C 1008.4 hPa SSE 11.9 km/h 29.6 km/h 51.6% 0.0 mm
22:39 12.2 °C 2.2 °C 1008.4 hPa SSO 12.5 km/h 18.5 km/h 50.4% 0.0 mm
22:44 12.3 °C 2.1 °C 1008.2 hPa SO 13.7 km/h 18.5 km/h 49.5% 0.0 mm
22:49 12.4 °C 2 °C 1008.2 hPa OSO 12 km/h 13.7 km/h 49.1% 0.0 mm
22:54 12.3 °C 2.2 °C 1008.5 hPa SO 8.7 km/h 14.8 km/h 50% 0.0 mm
22:59 12.2 °C 2 °C 1008.5 hPa SO 8.7 km/h 19 km/h 50% 0.0 mm
23:04 12 °C 2.2 °C 1008.5 hPa SO 8.7 km/h 13 km/h 50.9% 0.0 mm
23:09 11.9 °C 2.1 °C 1008.6 hPa SO 8.3 km/h 11.9 km/h 51% 0.0 mm
23:14 11.8 °C 2 °C 1008.6 hPa SO 7.6 km/h 10 km/h 51% 0.0 mm
23:19 11.7 °C 1.9 °C 1008.6 hPa SSO 7.3 km/h 13 km/h 51% 0.0 mm
23:24 11.7 °C 1.9 °C 1008.6 hPa SSO 6.9 km/h 13 km/h 51% 0.0 mm
23:29 11.7 °C 1.9 °C 1008.6 hPa SO 7.4 km/h 13 km/h 51% 0.0 mm
23:34 11.6 °C 2 °C 1008.6 hPa SO 8.4 km/h 11.1 km/h 51.8% 0.0 mm
23:39 11.5 °C 2 °C 1008.6 hPa OSO 8.1 km/h 11.1 km/h 52% 0.0 mm
23:44 11.4 °C 2 °C 1008.6 hPa SO 7.6 km/h 9.5 km/h 52.3% 0.0 mm
Murcia-Puente Tocinos, Espa?a
Compliments of Weather Underground - 3 mb

La estación de MeteoMurcia.com, publica sus datos en los siguientes proyectos:

Weather Underground PWS IMURCIAP2 Meteoclimatic www.awekas.at

W3Counter
Web Analytics